sensor_id;sensor_type;location;lat;lon;timestamp;pressure;altitude;pressure_sealevel;temperature;humidity
57948;BME280;43754;56.992;24.292;2022-12-29T00:01:55;100823.47;;;1.45;100.00
57948;BME280;43754;56.992;24.292;2022-12-29T00:04:27;100821.66;;;1.46;100.00
57948;BME280;43754;56.992;24.292;2022-12-29T00:07:00;100822.72;;;1.43;100.00
57948;BME280;43754;56.992;24.292;2022-12-29T00:09:33;100822.00;;;1.41;100.00
57948;BME280;43754;56.992;24.292;2022-12-29T00:12:05;100815.88;;;1.41;100.00
57948;BME280;43754;56.992;24.292;2022-12-29T00:14:37;100818.78;;;1.37;100.00
57948;BME280;43754;56.992;24.292;2022-12-29T00:17:28;100818.78;;;1.37;100.00
57948;BME280;43754;56.992;24.292;2022-12-29T00:20:00;100816.13;;;1.37;100.00
57948;BME280;43754;56.992;24.292;2022-12-29T00:22:52;100815.03;;;1.40;100.00
57948;BME280;43754;56.992;24.292;2022-12-29T00:25:42;100814.81;;;1.32;100.00
57948;BME280;43754;56.992;24.292;2022-12-29T00:28:33;100813.72;;;1.34;100.00
57948;BME280;43754;56.992;24.292;2022-12-29T00:31:23;100805.56;;;1.37;100.00
57948;BME280;43754;56.992;24.292;2022-12-29T00:34:13;100804.00;;;1.35;100.00
57948;BME280;43754;56.992;24.292;2022-12-29T00:37:04;100807.22;;;1.38;100.00
57948;BME280;43754;56.992;24.292;2022-12-29T00:39:39;100804.00;;;1.35;100.00
57948;BME280;43754;56.992;24.292;2022-12-29T00:42:30;100810.84;;;1.37;100.00
57948;BME280;43754;56.992;24.292;2022-12-29T00:45:34;100796.22;;;1.33;100.00
57948;BME280;43754;56.992;24.292;2022-12-29T00:48:06;100807.38;;;1.37;100.00
57948;BME280;43754;56.992;24.292;2022-12-29T00:50:38;100803.03;;;1.36;100.00
57948;BME280;43754;56.992;24.292;2022-12-29T00:53:10;100808.22;;;1.37;100.00
57948;BME280;43754;56.992;24.292;2022-12-29T00:55:44;100808.91;;;1.39;100.00
57948;BME280;43754;56.992;24.292;2022-12-29T00:58:16;100812.28;;;1.42;100.00
57948;BME280;43754;56.992;24.292;2022-12-29T01:00:48;100815.75;;;1.42;100.00
57948;BME280;43754;56.992;24.292;2022-12-29T01:03:20;100813.09;;;1.42;100.00
57948;BME280;43754;56.992;24.292;2022-12-29T01:05:52;100817.31;;;1.45;100.00
57948;BME280;43754;56.992;24.292;2022-12-29T01:08:27;100818.38;;;1.42;100.00
57948;BME280;43754;56.992;24.292;2022-12-29T01:11:01;100812.16;;;1.43;100.00
57948;BME280;43754;56.992;24.292;2022-12-29T01:13:34;100809.03;;;1.38;100.00
57948;BME280;43754;56.992;24.292;2022-12-29T01:16:06;100810.97;;;1.36;100.00
57948;BME280;43754;56.992;24.292;2022-12-29T01:18:39;100802.09;;;1.37;100.00
57948;BME280;43754;56.992;24.292;2022-12-29T01:21:11;100794.28;;;1.35;100.00
57948;BME280;43754;56.992;24.292;2022-12-29T01:23:44;100790.44;;;1.39;100.00
57948;BME280;43754;56.992;24.292;2022-12-29T01:26:18;100790.53;;;1.38;100.00
57948;BME280;43754;56.992;24.292;2022-12-29T01:28:50;100788.75;;;1.38;100.00
57948;BME280;43754;56.992;24.292;2022-12-29T01:31:22;100784.56;;;1.36;100.00
57948;BME280;43754;56.992;24.292;2022-12-29T01:33:54;100784.31;;;1.39;100.00
57948;BME280;43754;56.992;24.292;2022-12-29T01:36:26;100789.47;;;1.41;100.00
57948;BME280;43754;56.992;24.292;2022-12-29T01:38:58;100786.00;;;1.40;100.00
57948;BME280;43754;56.992;24.292;2022-12-29T01:41:32;100787.09;;;1.37;100.00
57948;BME280;43754;56.992;24.292;2022-12-29T01:47:10;100776.28;;;1.41;100.00
57948;BME280;43754;56.992;24.292;2022-12-29T01:49:43;100772.44;;;1.45;100.00
57948;BME280;43754;56.992;24.292;2022-12-29T01:52:14;100776.88;;;1.44;100.00
57948;BME280;43754;56.992;24.292;2022-12-29T01:54:50;100778.78;;;1.42;100.00
57948;BME280;43754;56.992;24.292;2022-12-29T01:57:31;100780.72;;;1.40;100.00
57948;BME280;43754;56.992;24.292;2022-12-29T02:00:07;100780.72;;;1.40;100.00
57948;BME280;43754;56.992;24.292;2022-12-29T02:02:51;100781.41;;;1.42;100.00
57948;BME280;43754;56.992;24.292;2022-12-29T02:05:27;100777.47;;;1.48;100.00
57948;BME280;43754;56.992;24.292;2022-12-29T02:08:01;100775.91;;;1.45;100.00
57948;BME280;43754;56.992;24.292;2022-12-29T02:10:34;100775.53;;;1.38;100.00
57948;BME280;43754;56.992;24.292;2022-12-29T02:13:08;100777.22;;;1.39;100.00
57948;BME280;43754;56.992;24.292;2022-12-29T02:15:50;100776.38;;;1.39;100.00
57948;BME280;43754;56.992;24.292;2022-12-29T02:18:33;100773.88;;;1.37;100.00
57948;BME280;43754;56.992;24.292;2022-12-29T02:21:30;100771.34;;;1.36;100.00
57948;BME280;43754;56.992;24.292;2022-12-29T02:24:30;100770.41;;;1.37;100.00
57948;BME280;43754;56.992;24.292;2022-12-29T02:30:31;100764.03;;;1.39;100.00
57948;BME280;43754;56.992;24.292;2022-12-29T02:33:10;100762.72;;;1.45;100.00
57948;BME280;43754;56.992;24.292;2022-12-29T02:35:50;100764.50;;;1.45;100.00
57948;BME280;43754;56.992;24.292;2022-12-29T02:38:35;100751.19;;;1.46;100.00
57948;BME280;43754;56.992;24.292;2022-12-29T02:41:18;100748.56;;;1.46;100.00
57948;BME280;43754;56.992;24.292;2022-12-29T02:43:55;100750.22;;;1.47;100.00
57948;BME280;43754;56.992;24.292;2022-12-29T02:46:37;100754.78;;;1.45;100.00
57948;BME280;43754;56.992;24.292;2022-12-29T02:49:13;100757.28;;;1.47;100.00
57948;BME280;43754;56.992;24.292;2022-12-29T02:51:52;100750.22;;;1.47;100.00
57948;BME280;43754;56.992;24.292;2022-12-29T02:54:28;100748.41;;;1.48;100.00
57948;BME280;43754;56.992;24.292;2022-12-29T02:57:28;100749.25;;;1.48;100.00
57948;BME280;43754;56.992;24.292;2022-12-29T03:00:04;100748.31;;;1.49;100.00
57948;BME280;43754;56.992;24.292;2022-12-29T03:02:58;100750.94;;;1.49;100.00
57948;BME280;43754;56.992;24.292;2022-12-29T03:05:53;100736.06;;;1.48;100.00
57948;BME280;43754;56.992;24.292;2022-12-29T03:08:34;100738.31;;;1.53;100.00
57948;BME280;43754;56.992;24.292;2022-12-29T03:11:12;100741.06;;;1.51;100.00
57948;BME280;43754;56.992;24.292;2022-12-29T03:14:08;100736.38;;;1.55;100.00
57948;BME280;43754;56.992;24.292;2022-12-29T03:17:06;100731.63;;;1.49;100.00
57948;BME280;43754;56.992;24.292;2022-12-29T03:19:47;100725.38;;;1.50;100.00
57948;BME280;43754;56.992;24.292;2022-12-29T03:22:25;100729.66;;;1.51;100.00
57948;BME280;43754;56.992;24.292;2022-12-29T03:25:15;100736.63;;;1.52;100.00
57948;BME280;43754;56.992;24.292;2022-12-29T03:27:52;100732.19;;;1.52;100.00
57948;BME280;43754;56.992;24.292;2022-12-29T03:30:28;100726.06;;;1.52;100.00
57948;BME280;43754;56.992;24.292;2022-12-29T03:33:04;100722.47;;;1.53;100.00
57948;BME280;43754;56.992;24.292;2022-12-29T03:35:42;100715.50;;;1.52;100.00
57948;BME280;43754;56.992;24.292;2022-12-29T03:38:19;100718.41;;;1.49;100.00
57948;BME280;43754;56.992;24.292;2022-12-29T03:40:56;100723.56;;;1.50;100.00
57948;BME280;43754;56.992;24.292;2022-12-29T03:43:34;100732.19;;;1.52;100.00
57948;BME280;43754;56.992;24.292;2022-12-29T03:46:06;100720.69;;;1.53;100.00
57948;BME280;43754;56.992;24.292;2022-12-29T03:48:39;100727.88;;;1.51;100.00
57948;BME280;43754;56.992;24.292;2022-12-29T03:51:14;100721.63;;;1.52;100.00
57948;BME280;43754;56.992;24.292;2022-12-29T03:53:46;100724.03;;;1.55;100.00
57948;BME280;43754;56.992;24.292;2022-12-29T03:56:18;100716.09;;;1.55;100.00
57948;BME280;43754;56.992;24.292;2022-12-29T03:58:52;100719.47;;;1.57;100.00
57948;BME280;43754;56.992;24.292;2022-12-29T04:01:42;100715.63;;;1.61;100.00
57948;BME280;43754;56.992;24.292;2022-12-29T04:04:14;100713.09;;;1.60;100.00
57948;BME280;43754;56.992;24.292;2022-12-29T04:06:49;100715.50;;;1.63;100.00
57948;BME280;43754;56.992;24.292;2022-12-29T04:09:21;100708.75;;;1.59;100.00
57948;BME280;43754;56.992;24.292;2022-12-29T04:11:54;100710.34;;;1.61;100.00
57948;BME280;43754;56.992;24.292;2022-12-29T04:14:26;100712.03;;;1.62;100.00
57948;BME280;43754;56.992;24.292;2022-12-29T04:17:00;100703.13;;;1.63;100.00
57948;BME280;43754;56.992;24.292;2022-12-29T04:19:33;100702.31;;;1.63;100.00
57948;BME280;43754;56.992;24.292;2022-12-29T04:22:07;100707.19;;;1.67;100.00
57948;BME280;43754;56.992;24.292;2022-12-29T04:24:39;100693.97;;;1.67;100.00
57948;BME280;43754;56.992;24.292;2022-12-29T04:27:14;100704.53;;;1.67;100.00
57948;BME280;43754;56.992;24.292;2022-12-29T04:30:09;100707.19;;;1.67;100.00
57948;BME280;43754;56.992;24.292;2022-12-29T04:32:53;100696.03;;;1.64;100.00
57948;BME280;43754;56.992;24.292;2022-12-29T04:35:26;100699.50;;;1.64;100.00
57948;BME280;43754;56.992;24.292;2022-12-29T04:37:59;100701.47;;;1.62;100.00
57948;BME280;43754;56.992;24.292;2022-12-29T04:40:31;100703.84;;;1.65;100.00
57948;BME280;43754;56.992;24.292;2022-12-29T04:43:04;100712.97;;;1.61;100.00
57948;BME280;43754;56.992;24.292;2022-12-29T04:45:43;100708.41;;;1.63;100.00
57948;BME280;43754;56.992;24.292;2022-12-29T04:48:28;100707.31;;;1.66;100.00
57948;BME280;43754;56.992;24.292;2022-12-29T04:51:20;100702.88;;;1.66;100.00
57948;BME280;43754;56.992;24.292;2022-12-29T04:53:55;100703.84;;;1.65;100.00
57948;BME280;43754;56.992;24.292;2022-12-29T04:56:29;100701.47;;;1.62;100.00
57948;BME280;43754;56.992;24.292;2022-12-29T04:59:02;100697.25;;;1.60;100.00
57948;BME280;43754;56.992;24.292;2022-12-29T05:01:34;100698.94;;;1.61;100.00
57948;BME280;43754;56.992;24.292;2022-12-29T05:04:06;100701.47;;;1.62;100.00
57948;BME280;43754;56.992;24.292;2022-12-29T05:06:38;100700.34;;;1.65;100.00
57948;BME280;43754;56.992;24.292;2022-12-29T05:09:12;100702.03;;;1.66;100.00
57948;BME280;43754;56.992;24.292;2022-12-29T05:11:45;100693.16;;;1.67;100.00
57948;BME280;43754;56.992;24.292;2022-12-29T05:14:18;100700.94;;;1.68;100.00
57948;BME280;43754;56.992;24.292;2022-12-29T05:16:50;100698.56;;;1.65;100.00
57948;BME280;43754;56.992;24.292;2022-12-29T05:19:22;100698.19;;;1.70;100.00
57948;BME280;43754;56.992;24.292;2022-12-29T05:21:54;100700.69;;;1.71;100.00
57948;BME280;43754;56.992;24.292;2022-12-29T05:24:28;100701.78;;;1.69;100.00
57948;BME280;43754;56.992;24.292;2022-12-29T05:27:01;100699.03;;;1.70;100.00
57948;BME280;43754;56.992;24.292;2022-12-29T05:29:56;100693.75;;;1.70;100.00
57948;BME280;43754;56.992;24.292;2022-12-29T05:32:29;100689.91;;;1.74;100.00
57948;BME280;43754;56.992;24.292;2022-12-29T05:35:01;100702.38;;;1.72;100.00
57948;BME280;43754;56.992;24.292;2022-12-29T05:37:35;100697.94;;;1.73;100.00
57948;BME280;43754;56.992;24.292;2022-12-29T05:40:10;100692.38;;;1.76;100.00
57948;BME280;43754;56.992;24.292;2022-12-29T05:42:43;100682.06;;;1.73;100.00
57948;BME280;43754;56.992;24.292;2022-12-29T05:45:23;100678.47;;;1.74;100.00
57948;BME280;43754;56.992;24.292;2022-12-29T05:48:18;100680.97;;;1.75;100.00
57948;BME280;43754;56.992;24.292;2022-12-29T05:51:09;100682.44;;;1.79;100.00
57948;BME280;43754;56.992;24.292;2022-12-29T05:53:52;100691.53;;;1.75;100.00
57948;BME280;43754;56.992;24.292;2022-12-29T05:56:25;100695.75;;;1.78;100.00
57948;BME280;43754;56.992;24.292;2022-12-29T05:59:01;100694.19;;;1.75;100.00
57948;BME280;43754;56.992;24.292;2022-12-29T06:01:34;100698.53;;;1.76;100.00
57948;BME280;43754;56.992;24.292;2022-12-29T06:04:07;100692.38;;;1.76;100.00
57948;BME280;43754;56.992;24.292;2022-12-29T06:06:39;100696.59;;;1.78;100.00
57948;BME280;43754;56.992;24.292;2022-12-29T06:09:18;100697.69;;;1.76;100.00
57948;BME280;43754;56.992;24.292;2022-12-29T06:11:52;100694.06;;;1.77;100.00
57948;BME280;43754;56.992;24.292;2022-12-29T06:14:24;100686.03;;;1.78;100.00
57948;BME280;43754;56.992;24.292;2022-12-29T06:16:56;100682.56;;;1.78;100.00
57948;BME280;43754;56.992;24.292;2022-12-29T06:19:28;100686.50;;;1.83;100.00
57948;BME280;43754;56.992;24.292;2022-12-29T06:22:00;100686.63;;;1.82;100.00
57948;BME280;43754;56.992;24.292;2022-12-29T06:24:36;100685.53;;;1.84;100.00
57948;BME280;43754;56.992;24.292;2022-12-29T06:27:10;100681.66;;;1.89;100.00
57948;BME280;43754;56.992;24.292;2022-12-29T06:29:42;100680.38;;;1.83;100.00
57948;BME280;43754;56.992;24.292;2022-12-29T06:32:14;100686.50;;;1.83;100.00
57948;BME280;43754;56.992;24.292;2022-12-29T06:34:51;100690.22;;;1.81;100.00
57948;BME280;43754;56.992;24.292;2022-12-29T06:37:23;100694.66;;;1.80;100.00
57948;BME280;43754;56.992;24.292;2022-12-29T06:39:55;100679.53;;;1.82;100.00
57948;BME280;43754;56.992;24.292;2022-12-29T06:42:33;100682.03;;;1.84;100.00
57948;BME280;43754;56.992;24.292;2022-12-29T06:45:38;100682.28;;;1.81;100.00
57948;BME280;43754;56.992;24.292;2022-12-29T06:48:11;100687.56;;;1.81;100.00
57948;BME280;43754;56.992;24.292;2022-12-29T06:50:43;100690.09;;;1.82;100.00
57948;BME280;43754;56.992;24.292;2022-12-29T06:53:15;100693.44;;;1.84;100.00
57948;BME280;43754;56.992;24.292;2022-12-29T06:55:47;100683.03;;;1.83;100.00
57948;BME280;43754;56.992;24.292;2022-12-29T06:58:21;100682.19;;;1.82;100.00
57948;BME280;43754;56.992;24.292;2022-12-29T07:00:53;100680.22;;;1.84;100.00
57948;BME280;43754;56.992;24.292;2022-12-29T07:03:25;100684.69;;;1.84;100.00
57948;BME280;43754;56.992;24.292;2022-12-29T07:05:57;100681.06;;;1.85;100.00
57948;BME280;43754;56.992;24.292;2022-12-29T07:08:29;100680.13;;;1.86;100.00
57948;BME280;43754;56.992;24.292;2022-12-29T07:11:02;100676.06;;;1.82;100.00
57948;BME280;43754;56.992;24.292;2022-12-29T07:13:35;100678.56;;;1.83;100.00
57948;BME280;43754;56.992;24.292;2022-12-29T07:16:08;100680.38;;;1.83;100.00
57948;BME280;43754;56.992;24.292;2022-12-29T07:18:40;100681.34;;;1.82;100.00
57948;BME280;43754;56.992;24.292;2022-12-29T07:21:12;100685.66;;;1.83;100.00
57948;BME280;43754;56.992;24.292;2022-12-29T07:23:44;100681.22;;;1.83;100.00
57948;BME280;43754;56.992;24.292;2022-12-29T07:26:16;100680.97;;;1.87;100.00
57948;BME280;43754;56.992;24.292;2022-12-29T07:28:51;100680.59;;;1.91;100.00
57948;BME280;43754;56.992;24.292;2022-12-29T07:31:23;100670.84;;;1.92;100.00
57948;BME280;43754;56.992;24.292;2022-12-29T07:33:55;100670.25;;;1.88;100.00
57948;BME280;43754;56.992;24.292;2022-12-29T07:36:27;100682.13;;;1.94;100.00
57948;BME280;43754;56.992;24.292;2022-12-29T07:39:05;100679.38;;;1.95;100.00
57948;BME280;43754;56.992;24.292;2022-12-29T07:41:37;100675.88;;;1.95;100.00
57948;BME280;43754;56.992;24.292;2022-12-29T07:44:14;100665.31;;;1.95;100.00
57948;BME280;43754;56.992;24.292;2022-12-29T07:47:16;100674.94;;;1.96;100.00
57948;BME280;43754;56.992;24.292;2022-12-29T07:49:48;100667.00;;;1.96;100.00
57948;BME280;43754;56.992;24.292;2022-12-29T07:52:20;100662.66;;;1.95;100.00
57948;BME280;43754;56.992;24.292;2022-12-29T07:54:52;100667.84;;;1.96;100.00
57948;BME280;43754;56.992;24.292;2022-12-29T07:57:24;100664.34;;;1.96;100.00
57948;BME280;43754;56.992;24.292;2022-12-29T08:00:05;100659.06;;;1.96;100.00
57948;BME280;43754;56.992;24.292;2022-12-29T08:02:42;100657.84;;;2.00;100.00
57948;BME280;43754;56.992;24.292;2022-12-29T08:05:14;100656.84;;;2.01;100.00
57948;BME280;43754;56.992;24.292;2022-12-29T08:07:47;100655.78;;;2.03;100.00
57948;BME280;43754;56.992;24.292;2022-12-29T08:10:19;100663.56;;;2.05;100.00
57948;BME280;43754;56.992;24.292;2022-12-29T08:12:51;100657.59;;;2.03;100.00
57948;BME280;43754;56.992;24.292;2022-12-29T08:15:24;100653.50;;;1.99;100.00
57948;BME280;43754;56.992;24.292;2022-12-29T08:18:03;100658.06;;;1.97;100.00
57948;BME280;43754;56.992;24.292;2022-12-29T08:20:35;100657.00;;;1.99;100.00
57948;BME280;43754;56.992;24.292;2022-12-29T08:23:07;100655.19;;;2.00;100.00
57948;BME280;43754;56.992;24.292;2022-12-29T08:25:39;100649.91;;;2.00;100.00
57948;BME280;43754;56.992;24.292;2022-12-29T08:28:11;100667.19;;;2.04;100.00
57948;BME280;43754;56.992;24.292;2022-12-29T08:30:44;100664.56;;;2.04;100.00
57948;BME280;43754;56.992;24.292;2022-12-29T08:33:17;100660.69;;;2.08;100.00
57948;BME280;43754;56.992;24.292;2022-12-29T08:35:49;100656.09;;;2.10;100.00
57948;BME280;43754;56.992;24.292;2022-12-29T08:38:21;100653.22;;;2.13;100.00
57948;BME280;43754;56.992;24.292;2022-12-29T08:40:53;100644.06;;;2.17;100.00
57948;BME280;43754;56.992;24.292;2022-12-29T08:43:25;100648.34;;;2.18;100.00
57948;BME280;43754;56.992;24.292;2022-12-29T08:45:59;100652.13;;;2.15;100.00
57948;BME280;43754;56.992;24.292;2022-12-29T08:48:31;100650.16;;;2.17;100.00
57948;BME280;43754;56.992;24.292;2022-12-29T08:51:03;100649.84;;;2.11;100.00
57948;BME280;43754;56.992;24.292;2022-12-29T08:53:35;100645.41;;;2.11;100.00
57948;BME280;43754;56.992;24.292;2022-12-29T08:56:09;100635.91;;;2.09;100.00
57948;BME280;43754;56.992;24.292;2022-12-29T08:58:49;100640.81;;;2.13;100.00
57948;BME280;43754;56.992;24.292;2022-12-29T09:01:24;100639.84;;;2.14;100.00
57948;BME280;43754;56.992;24.292;2022-12-29T09:03:56;100636.13;;;2.17;100.00
57948;BME280;43754;56.992;24.292;2022-12-29T09:06:48;100637.56;;;2.21;100.00
57948;BME280;43754;56.992;24.292;2022-12-29T09:09:20;100634.75;;;2.22;100.00
57948;BME280;43754;56.992;24.292;2022-12-29T09:11:52;100629.09;;;2.27;100.00
57948;BME280;43754;56.992;24.292;2022-12-29T09:14:24;100633.03;;;2.33;100.00
57948;BME280;43754;56.992;24.292;2022-12-29T09:16:58;100625.78;;;2.35;100.00
57948;BME280;43754;56.992;24.292;2022-12-29T09:19:48;100626.34;;;2.38;100.00
57948;BME280;43754;56.992;24.292;2022-12-29T09:22:20;100618.41;;;2.38;100.00
57948;BME280;43754;56.992;24.292;2022-12-29T09:24:52;100616.63;;;2.39;100.00
57948;BME280;43754;56.992;24.292;2022-12-29T09:27:24;100619.25;;;2.39;100.00
57948;BME280;43754;56.992;24.292;2022-12-29T09:29:57;100617.34;;;2.41;100.00
57948;BME280;43754;56.992;24.292;2022-12-29T09:32:30;100613.84;;;2.40;100.00
57948;BME280;43754;56.992;24.292;2022-12-29T09:35:05;100619.03;;;2.42;100.00
57948;BME280;43754;56.992;24.292;2022-12-29T09:37:37;100611.66;;;2.45;100.00
57948;BME280;43754;56.992;24.292;2022-12-29T09:40:22;100615.84;;;2.48;100.00
57948;BME280;43754;56.992;24.292;2022-12-29T09:43:05;100614.03;;;2.48;100.00
57948;BME280;43754;56.992;24.292;2022-12-29T09:45:44;100610.44;;;2.49;100.00
57948;BME280;43754;56.992;24.292;2022-12-29T09:48:20;100608.06;;;2.46;100.00
57948;BME280;43754;56.992;24.292;2022-12-29T09:50:57;100599.53;;;2.43;100.00
57948;BME280;43754;56.992;24.292;2022-12-29T09:53:33;100608.06;;;2.46;100.00
57948;BME280;43754;56.992;24.292;2022-12-29T09:56:13;100608.06;;;2.46;100.00
57948;BME280;43754;56.992;24.292;2022-12-29T09:58:51;100605.41;;;2.46;100.00
57948;BME280;43754;56.992;24.292;2022-12-29T10:01:29;100605.13;;;2.49;100.00
57948;BME280;43754;56.992;24.292;2022-12-29T10:04:04;100601.94;;;2.46;100.00
57948;BME280;43754;56.992;24.292;2022-12-29T10:06:42;100603.47;;;2.48;100.00
57948;BME280;43754;56.992;24.292;2022-12-29T10:09:47;100599.47;;;2.54;100.00
57948;BME280;43754;56.992;24.292;2022-12-29T10:12:27;100591.53;;;2.54;100.00
57948;BME280;43754;56.992;24.292;2022-12-29T10:15:05;100604.47;;;2.57;100.00
57948;BME280;43754;56.992;24.292;2022-12-29T10:17:47;100602.78;;;2.56;100.00
57948;BME280;43754;56.992;24.292;2022-12-29T10:20:28;100597.66;;;2.54;100.00
57948;BME280;43754;56.992;24.292;2022-12-29T10:23:18;100599.06;;;2.58;100.00
57948;BME280;43754;56.992;24.292;2022-12-29T10:25:54;100586.25;;;2.63;100.00
57948;BME280;43754;56.992;24.292;2022-12-29T10:28:34;100585.28;;;2.64;100.00
57948;BME280;43754;56.992;24.292;2022-12-29T10:31:12;100570.53;;;2.62;100.00
57948;BME280;43754;56.992;24.292;2022-12-29T10:33:46;100565.09;;;2.63;100.00
57948;BME280;43754;56.992;24.292;2022-12-29T10:36:27;100554.66;;;2.62;100.00
57948;BME280;43754;56.992;24.292;2022-12-29T10:39:06;100551.59;;;2.66;100.00
57948;BME280;43754;56.992;24.292;2022-12-29T10:41:49;100546.56;;;2.63;100.00
57948;BME280;43754;56.992;24.292;2022-12-29T10:44:25;100555.91;;;2.67;100.00
57948;BME280;43754;56.992;24.292;2022-12-29T10:47:04;100554.81;;;2.70;100.00
57948;BME280;43754;56.992;24.292;2022-12-29T10:49:41;100554.81;;;2.70;100.00
57948;BME280;43754;56.992;24.292;2022-12-29T10:52:17;100550.22;;;2.72;100.00
57948;BME280;43754;56.992;24.292;2022-12-29T10:54:54;100548.00;;;2.77;100.00
57948;BME280;43754;56.992;24.292;2022-12-29T10:57:32;100535.22;;;2.82;100.00
57948;BME280;43754;56.992;24.292;2022-12-29T11:00:11;100533.84;;;2.88;100.00
57948;BME280;43754;56.992;24.292;2022-12-29T11:05:45;100528.78;;;2.85;100.00
57948;BME280;43754;56.992;24.292;2022-12-29T11:08:23;100525.75;;;2.80;100.00
57948;BME280;43754;56.992;24.292;2022-12-29T11:10:59;100524.75;;;2.81;100.00
57948;BME280;43754;56.992;24.292;2022-12-29T11:13:34;100517.09;;;2.77;100.00
57948;BME280;43754;56.992;24.292;2022-12-29T11:16:11;100523.34;;;2.76;100.00
57948;BME280;43754;56.992;24.292;2022-12-29T11:18:46;100513.47;;;2.78;100.00
57948;BME280;43754;56.992;24.292;2022-12-29T11:21:31;100517.09;;;2.77;100.00
57948;BME280;43754;56.992;24.292;2022-12-29T11:24:19;100521.53;;;2.77;100.00
57948;BME280;43754;56.992;24.292;2022-12-29T11:26:53;100519.03;;;2.75;100.00
57948;BME280;43754;56.992;24.292;2022-12-29T11:29:37;100534.94;;;2.75;100.00
57948;BME280;43754;56.992;24.292;2022-12-29T11:32:10;100533.81;;;2.78;100.00
57948;BME280;43754;56.992;24.292;2022-12-29T11:34:43;100555.81;;;2.78;100.00
57948;BME280;43754;56.992;24.292;2022-12-29T11:37:17;100551.50;;;2.77;100.00
57948;BME280;43754;56.992;24.292;2022-12-29T11:39:54;100549.81;;;2.76;100.00
57948;BME280;43754;56.992;24.292;2022-12-29T11:42:33;100551.50;;;2.77;100.00
57948;BME280;43754;56.992;24.292;2022-12-29T11:45:15;100546.19;;;2.77;100.00
57948;BME280;43754;56.992;24.292;2022-12-29T11:47:50;100544.78;;;2.73;100.00
57948;BME280;43754;56.992;24.292;2022-12-29T11:50:25;100535.75;;;2.76;100.00
57948;BME280;43754;56.992;24.292;2022-12-29T11:53:00;100529.47;;;2.77;100.00
57948;BME280;43754;56.992;24.292;2022-12-29T11:55:35;100534.38;;;2.82;100.00
57948;BME280;43754;56.992;24.292;2022-12-29T11:58:14;100539.38;;;2.85;100.00
57948;BME280;43754;56.992;24.292;2022-12-29T12:00:49;100523.50;;;2.85;100.00
57948;BME280;43754;56.992;24.292;2022-12-29T12:03:24;100518.53;;;2.91;100.00
57948;BME280;43754;56.992;24.292;2022-12-29T12:06:01;100529.13;;;2.91;100.00
57948;BME280;43754;56.992;24.292;2022-12-29T12:08:37;100524.91;;;2.89;100.00
57948;BME280;43754;56.992;24.292;2022-12-29T12:11:14;100517.69;;;2.91;100.00
57948;BME280;43754;56.992;24.292;2022-12-29T12:13:59;100519.22;;;2.93;100.00
57948;BME280;43754;56.992;24.292;2022-12-29T12:16:49;100509.88;;;2.89;100.00
57948;BME280;43754;56.992;24.292;2022-12-29T12:19:31;100507.38;;;2.88;100.00
57948;BME280;43754;56.992;24.292;2022-12-29T12:22:10;100502.88;;;2.88;100.00
57948;BME280;43754;56.992;24.292;2022-12-29T12:24:48;100505.69;;;2.87;100.00
57948;BME280;43754;56.992;24.292;2022-12-29T12:27:26;100509.31;;;2.86;100.00
57948;BME280;43754;56.992;24.292;2022-12-29T12:30:03;100512.78;;;2.86;100.00
57948;BME280;43754;56.992;24.292;2022-12-29T12:32:46;100504.97;;;2.85;100.00
57948;BME280;43754;56.992;24.292;2022-12-29T12:35:26;100502.88;;;2.88;100.00
57948;BME280;43754;56.992;24.292;2022-12-29T12:38:13;100506.53;;;2.87;100.00
57948;BME280;43754;56.992;24.292;2022-12-29T12:41:08;100513.63;;;2.87;100.00
57948;BME280;43754;56.992;24.292;2022-12-29T12:43:51;100515.16;;;2.89;100.00
57948;BME280;43754;56.992;24.292;2022-12-29T12:46:45;100529.94;;;2.92;100.00
57948;BME280;43754;56.992;24.292;2022-12-29T12:49:35;100516.00;;;2.90;100.00
57948;BME280;43754;56.992;24.292;2022-12-29T12:52:18;100516.56;;;2.93;100.00
57948;BME280;43754;56.992;24.292;2022-12-29T12:55:12;100504.72;;;2.97;100.00
57948;BME280;43754;56.992;24.292;2022-12-29T12:57:54;100497.34;;;2.91;100.00
57948;BME280;43754;56.992;24.292;2022-12-29T13:00:39;100505.41;;;2.90;100.00
57948;BME280;43754;56.992;24.292;2022-12-29T13:03:22;100508.19;;;2.88;100.00
57948;BME280;43754;56.992;24.292;2022-12-29T13:06:12;100505.13;;;2.83;100.00
57948;BME280;43754;56.992;24.292;2022-12-29T13:09:11;100507.63;;;2.85;100.00
57948;BME280;43754;56.992;24.292;2022-12-29T13:11:58;100506.66;;;2.86;100.00
57948;BME280;43754;56.992;24.292;2022-12-29T13:14:42;100500.25;;;2.88;100.00
57948;BME280;43754;56.992;24.292;2022-12-29T13:17:26;100502.06;;;2.88;100.00
57948;BME280;43754;56.992;24.292;2022-12-29T13:20:04;100506.66;;;2.86;100.00
57948;BME280;43754;56.992;24.292;2022-12-29T13:22:46;100510.81;;;2.88;100.00
57948;BME280;43754;56.992;24.292;2022-12-29T13:25:27;100508.34;;;2.87;100.00
57948;BME280;43754;56.992;24.292;2022-12-29T13:28:05;100500.25;;;2.88;100.00
57948;BME280;43754;56.992;24.292;2022-12-29T13:30:45;100499.44;;;2.88;100.00
57948;BME280;43754;56.992;24.292;2022-12-29T13:33:27;100502.75;;;2.90;100.00
57948;BME280;43754;56.992;24.292;2022-12-29T13:36:02;100497.47;;;2.90;100.00
57948;BME280;43754;56.992;24.292;2022-12-29T13:38:38;100501.91;;;2.89;100.00
57948;BME280;43754;56.992;24.292;2022-12-29T13:41:13;100505.41;;;2.90;100.00
57948;BME280;43754;56.992;24.292;2022-12-29T13:43:47;100504.31;;;2.92;100.00